Time;durP1;ratioP1;P1;durP2;ratioP2;P2;SDS_P1;SDS_P2;PMS_P1;PMS_P2;Temp;Humidity;BMP_temperature;BMP_pressure;BME280_temperature;BME280_humidity;BME280_pressure;Samples;Min_cycle;Max_cycle;Signal;HPM_P1;HPM_P2
2022/05/06 00:02:41;;;;;;;13.00;9.67;;;;;;;;;;6146795;28;20269;-68
2022/05/06 00:06:02;;;;;;;11.47;10.33;;;;;;;;;;6147500;28;20849;-68
2022/05/06 00:09:22;;;;;;;11.83;10.30;;;;;;;;;;6144664;28;20231;-69
2022/05/06 00:12:44;;;;;;;15.87;10.37;;;;;;;;;;6146542;28;20222;-68
2022/05/06 00:16:05;;;;;;;12.80;9.63;;;;;;;;;;6115075;28;20234;-68
2022/05/06 00:19:25;;;;;;;12.93;11.63;;;;;;;;;;6149410;28;20534;-68
2022/05/06 00:22:46;;;;;;;11.10;10.00;;;;;;;;;;6156742;28;20231;-67
2022/05/06 00:26:07;;;;;;;11.97;9.83;;;;;;;;;;6152899;28;20623;-68
2022/05/06 00:29:28;;;;;;;14.77;10.73;;;;;;;;;;6149487;28;20239;-69
2022/05/06 00:32:49;;;;;;;12.27;11.07;;;;;;;;;;6150382;28;20235;-69
2022/05/06 00:36:09;;;;;;;16.83;12.10;;;;;;;;;;6149402;28;20230;-68
2022/05/06 00:39:30;;;;;;;11.67;10.47;;;;;;;;;;6150938;28;20225;-68
2022/05/06 00:42:51;;;;;;;11.33;10.27;;;;;;;;;;6147023;28;21930;-67
2022/05/06 00:46:15;;;;;;;12.20;10.67;;;;;;;;;;6140489;28;20226;-69
2022/05/06 00:49:36;;;;;;;12.70;10.00;;;;;;;;;;6149501;28;20775;-68
2022/05/06 00:52:57;;;;;;;12.73;11.27;;;;;;;;;;6150299;28;20234;-68
2022/05/06 00:56:18;;;;;;;13.63;11.73;;;;;;;;;;6149861;28;20238;-68
2022/05/06 01:03:15;;;;;;;11.83;10.63;;;;;;;;;;6150968;28;20567;-68
2022/05/06 01:06:36;;;;;;;11.87;10.70;;;;;;;;;;6135189;28;20226;-68
2022/05/06 01:09:57;;;;;;;15.67;12.77;;;;;;;;;;6132681;28;20239;-68
2022/05/06 01:13:19;;;;;;;11.63;10.37;;;;;;;;;;6140684;28;20254;-68
2022/05/06 01:16:42;;;;;;;15.77;12.33;;;;;;;;;;6153523;28;20597;-68
2022/05/06 01:20:08;;;;;;;13.77;11.10;;;;;;;;;;6148636;28;21971;-68
2022/05/06 01:23:31;;;;;;;12.17;10.87;;;;;;;;;;6139859;28;20262;-68
2022/05/06 01:26:57;;;;;;;13.43;12.10;;;;;;;;;;6151150;28;20325;-68
2022/05/06 01:30:23;;;;;;;14.13;12.43;;;;;;;;;;6132481;28;20250;-69
2022/05/06 01:33:44;;;;;;;11.90;10.70;;;;;;;;;;6151694;28;20325;-68
2022/05/06 01:37:06;;;;;;;15.93;11.67;;;;;;;;;;6145831;28;20226;-70
2022/05/06 01:40:35;;;;;;;14.60;13.13;;;;;;;;;;6146041;28;21087;-69
2022/05/06 01:43:57;;;;;;;16.17;12.63;;;;;;;;;;6136894;28;20238;-67
2022/05/06 01:47:19;;;;;;;15.40;11.57;;;;;;;;;;6152984;28;20238;-68
2022/05/06 01:50:41;;;;;;;15.23;13.63;;;;;;;;;;6150961;28;20235;-68
2022/05/06 01:54:03;;;;;;;13.33;11.97;;;;;;;;;;6150624;28;20238;-68
2022/05/06 01:57:26;;;;;;;15.87;12.57;;;;;;;;;;6147766;28;20243;-68
2022/05/06 02:00:47;;;;;;;15.37;13.37;;;;;;;;;;6141214;28;20682;-68
2022/05/06 02:07:54;;;;;;;16.87;13.93;;;;;;;;;;6139798;28;20464;-68
2022/05/06 02:11:16;;;;;;;14.63;12.67;;;;;;;;;;6142821;28;20511;-67
2022/05/06 02:14:38;;;;;;;14.30;12.70;;;;;;;;;;6154606;28;20585;-68
2022/05/06 02:18:15;;;;;;;17.53;14.00;;;;;;;;;;6142564;28;20622;-67
2022/05/06 02:21:45;;;;;;;17.93;13.23;;;;;;;;;;6152128;28;20616;-68
2022/05/06 02:25:26;;;;;;;16.20;14.60;;;;;;;;;;6151550;28;20230;-68
2022/05/06 02:28:51;;;;;;;13.90;12.50;;;;;;;;;;6152689;28;20230;-68
2022/05/06 02:35:52;;;;;;;19.70;15.07;;;;;;;;;;6152718;28;20238;-68
2022/05/06 02:39:26;;;;;;;18.67;16.43;;;;;;;;;;6151503;28;20238;-68
2022/05/06 02:42:57;;;;;;;17.47;14.63;;;;;;;;;;6153173;28;20238;-69
2022/05/06 02:46:18;;;;;;;17.60;14.43;;;;;;;;;;6148944;28;20234;-67
2022/05/06 02:49:40;;;;;;;21.93;16.47;;;;;;;;;;6153423;28;20231;-66
2022/05/06 02:53:05;;;;;;;17.97;16.20;;;;;;;;;;6152563;28;20249;-68
2022/05/06 02:56:26;;;;;;;21.77;19.33;;;;;;;;;;6151756;28;20596;-67
2022/05/06 02:59:52;;;;;;;63.07;56.87;;;;;;;;;;6140806;28;20265;-67
2022/05/06 03:03:16;;;;;;;28.43;25.63;;;;;;;;;;6149377;28;20270;-68
2022/05/06 03:06:42;;;;;;;61.30;55.03;;;;;;;;;;6151560;28;20234;-68
2022/05/06 03:10:04;;;;;;;26.27;23.67;;;;;;;;;;6139795;28;20258;-68
2022/05/06 03:13:28;;;;;;;20.17;18.07;;;;;;;;;;6132979;28;20231;-66
2022/05/06 03:16:53;;;;;;;21.13;18.30;;;;;;;;;;6142062;28;20341;-67
2022/05/06 03:20:14;;;;;;;20.67;18.00;;;;;;;;;;6148976;28;20535;-68
2022/05/06 03:23:35;;;;;;;20.47;16.67;;;;;;;;;;6154456;28;20234;-68
2022/05/06 03:26:57;;;;;;;24.47;18.87;;;;;;;;;;6153962;28;20234;-67
2022/05/06 03:30:19;;;;;;;23.53;19.33;;;;;;;;;;6137489;28;20238;-67
2022/05/06 03:33:41;;;;;;;20.20;18.07;;;;;;;;;;6157380;28;20231;-69
2022/05/06 03:37:16;;;;;;;24.80;18.87;;;;;;;;;;6151561;28;20246;-68
2022/05/06 03:40:39;;;;;;;23.43;17.73;;;;;;;;;;6152882;28;20234;-67
2022/05/06 03:44:00;;;;;;;23.47;19.07;;;;;;;;;;6150857;28;20583;-67
2022/05/06 03:47:22;;;;;;;23.47;20.93;;;;;;;;;;6136883;28;20230;-68
2022/05/06 03:54:26;;;;;;;22.57;19.00;;;;;;;;;;6140003;28;20231;-68
2022/05/06 03:57:48;;;;;;;23.47;20.20;;;;;;;;;;6152001;28;20238;-68
2022/05/06 04:01:13;;;;;;;26.07;20.43;;;;;;;;;;6140986;28;20226;-68
2022/05/06 04:04:38;;;;;;;24.40;21.90;;;;;;;;;;6147659;28;20608;-69
2022/05/06 04:08:03;;;;;;;22.93;20.70;;;;;;;;;;6149101;28;20691;-67
2022/05/06 04:11:24;;;;;;;22.77;20.30;;;;;;;;;;6144577;28;20239;-68
2022/05/06 04:14:51;;;;;;;21.67;19.50;;;;;;;;;;6152917;28;20329;-69
2022/05/06 04:18:13;;;;;;;22.77;19.93;;;;;;;;;;6155000;28;20940;-69
2022/05/06 04:25:17;;;;;;;28.80;20.93;;;;;;;;;;6151239;28;20233;-68
2022/05/06 04:28:40;;;;;;;28.37;22.40;;;;;;;;;;6150610;28;20246;-69
2022/05/06 04:32:03;;;;;;;28.40;24.00;;;;;;;;;;6151749;28;20239;-69
2022/05/06 04:35:24;;;;;;;24.07;21.63;;;;;;;;;;6154637;28;20226;-68
2022/05/06 04:38:44;;;;;;;29.17;24.47;;;;;;;;;;6149067;28;20227;-69
2022/05/06 04:42:05;;;;;;;32.00;24.83;;;;;;;;;;6134278;28;20218;-68
2022/05/06 04:45:30;;;;;;;28.40;23.97;;;;;;;;;;6146533;28;20235;-68
2022/05/06 04:48:58;;;;;;;28.93;23.93;;;;;;;;;;6133623;28;20643;-69
2022/05/06 04:52:20;;;;;;;29.30;23.77;;;;;;;;;;6138411;28;20624;-69
2022/05/06 04:55:42;;;;;;;28.30;22.60;;;;;;;;;;6152024;28;20257;-68
2022/05/06 04:59:05;;;;;;;31.07;24.03;;;;;;;;;;6148268;28;20231;-69
2022/05/06 05:02:37;;;;;;;28.53;25.43;;;;;;;;;;6144626;28;20726;-69
2022/05/06 05:05:59;;;;;;;28.13;23.80;;;;;;;;;;6144954;28;20234;-67
2022/05/06 05:09:21;;;;;;;26.00;23.23;;;;;;;;;;6133104;28;20262;-68
2022/05/06 05:12:43;;;;;;;25.13;22.47;;;;;;;;;;6149931;28;20219;-68
2022/05/06 05:16:04;;;;;;;27.60;22.87;;;;;;;;;;6138371;28;20234;-68
2022/05/06 05:19:25;;;;;;;32.03;24.70;;;;;;;;;;6122070;28;20234;-71
2022/05/06 05:22:52;;;;;;;28.60;25.37;;;;;;;;;;6148452;28;20242;-68
2022/05/06 05:26:13;;;;;;;30.93;25.57;;;;;;;;;;6136040;28;20337;-68
2022/05/06 05:29:35;;;;;;;36.20;26.00;;;;;;;;;;6148096;28;20227;-69
2022/05/06 05:32:57;;;;;;;32.47;26.37;;;;;;;;;;6151835;28;20238;-70
2022/05/06 05:36:18;;;;;;;29.33;23.23;;;;;;;;;;6146788;28;20230;-69
2022/05/06 05:39:41;;;;;;;31.30;25.90;;;;;;;;;;6130689;28;22272;-69
2022/05/06 05:43:04;;;;;;;29.43;25.23;;;;;;;;;;6151646;28;20662;-69
2022/05/06 05:50:04;;;;;;;34.33;26.03;;;;;;;;;;6152793;28;20234;-67
2022/05/06 05:53:25;;;;;;;28.43;25.37;;;;;;;;;;6151129;28;20239;-67
2022/05/06 05:56:48;;;;;;;31.63;26.00;;;;;;;;;;6154878;28;20238;-69
2022/05/06 06:00:10;;;;;;;30.80;24.90;;;;;;;;;;6142307;28;20234;-69
2022/05/06 06:03:33;;;;;;;33.60;26.07;;;;;;;;;;6114835;28;21336;-68
2022/05/06 06:06:57;;;;;;;36.27;28.27;;;;;;;;;;6135557;28;20592;-67
2022/05/06 06:10:18;;;;;;;34.20;25.87;;;;;;;;;;6147806;28;20620;-68
2022/05/06 06:13:41;;;;;;;31.70;25.50;;;;;;;;;;6148067;28;20230;-68
2022/05/06 06:17:06;;;;;;;37.50;28.27;;;;;;;;;;6138173;28;20540;-70
2022/05/06 06:20:27;;;;;;;32.83;26.00;;;;;;;;;;6149388;28;20234;-65
2022/05/06 06:23:47;;;;;;;29.27;24.97;;;;;;;;;;6142218;28;20329;-67
2022/05/06 06:27:08;;;;;;;35.27;26.67;;;;;;;;;;6146561;28;20230;-66
2022/05/06 06:30:30;;;;;;;35.17;27.63;;;;;;;;;;6153535;28;20448;-65
2022/05/06 06:33:55;;;;;;;32.20;27.37;;;;;;;;;;6125890;28;20647;-68
2022/05/06 06:37:25;;;;;;;40.03;30.30;;;;;;;;;;6139570;28;20505;-67
2022/05/06 06:40:45;;;;;;;30.77;26.97;;;;;;;;;;6151884;28;20277;-69
2022/05/06 06:44:06;;;;;;;32.90;26.20;;;;;;;;;;6126701;28;20243;-68
2022/05/06 06:48:01;;;;;;;31.20;25.50;;;;;;;;;;6106310;28;20254;-68
2022/05/06 06:51:36;;;;;;;36.27;29.20;;;;;;;;;;6157322;28;20238;-68
2022/05/06 06:54:57;;;;;;;35.13;28.70;;;;;;;;;;6162577;28;20235;-69
2022/05/06 06:58:17;;;;;;;33.47;28.93;;;;;;;;;;6153274;28;20234;-68
2022/05/06 07:01:38;;;;;;;30.63;27.23;;;;;;;;;;6147305;28;20310;-69
2022/05/06 07:05:00;;;;;;;33.87;27.50;;;;;;;;;;6149449;28;20231;-66
2022/05/06 07:11:59;;;;;;;31.60;27.17;;;;;;;;;;6155846;28;20810;-68
2022/05/06 07:15:24;;;;;;;31.60;25.67;;;;;;;;;;6137216;28;20317;-67
2022/05/06 07:18:44;;;;;;;32.53;28.70;;;;;;;;;;6153782;28;20226;-66
2022/05/06 07:22:07;;;;;;;29.13;25.17;;;;;;;;;;6158030;28;21368;-67
2022/05/06 07:25:32;;;;;;;33.83;28.50;;;;;;;;;;6135769;28;20227;-68
2022/05/06 07:28:53;;;;;;;36.63;26.97;;;;;;;;;;6149446;28;20254;-67
2022/05/06 07:32:13;;;;;;;36.97;27.63;;;;;;;;;;6151875;28;20247;-67
2022/05/06 07:35:34;;;;;;;38.30;29.03;;;;;;;;;;6153517;28;20329;-68
2022/05/06 07:38:56;;;;;;;32.63;26.37;;;;;;;;;;6154762;28;20621;-66
2022/05/06 07:42:16;;;;;;;37.03;28.30;;;;;;;;;;6152599;28;20831;-67
2022/05/06 07:45:37;;;;;;;38.20;26.70;;;;;;;;;;6156278;28;20235;-66
2022/05/06 07:48:57;;;;;;;31.90;26.90;;;;;;;;;;6156068;28;20246;-68
2022/05/06 07:52:17;;;;;;;27.93;24.63;;;;;;;;;;6153962;28;20270;-68
2022/05/06 07:55:40;;;;;;;29.67;24.17;;;;;;;;;;6155450;28;20290;-66
2022/05/06 07:59:00;;;;;;;29.03;24.10;;;;;;;;;;6145792;28;20227;-67
2022/05/06 08:05:59;;;;;;;29.97;24.90;;;;;;;;;;6154767;28;20230;-68
2022/05/06 08:09:20;;;;;;;24.73;22.07;;;;;;;;;;6154101;28;20230;-67
2022/05/06 08:12:42;;;;;;;23.93;21.40;;;;;;;;;;6154334;28;20244;-67
2022/05/06 08:16:03;;;;;;;22.63;20.23;;;;;;;;;;6144735;28;20645;-66
2022/05/06 08:19:24;;;;;;;24.47;21.77;;;;;;;;;;6150761;28;20227;-67
2022/05/06 08:22:44;;;;;;;24.73;21.67;;;;;;;;;;6154829;28;20223;-67
2022/05/06 08:26:05;;;;;;;23.20;20.60;;;;;;;;;;6157348;28;20226;-66
2022/05/06 08:29:28;;;;;;;22.87;19.93;;;;;;;;;;6152938;28;20503;-69
2022/05/06 08:32:48;;;;;;;21.57;18.53;;;;;;;;;;6153562;28;22566;-67
2022/05/06 08:36:09;;;;;;;20.80;18.47;;;;;;;;;;6150001;28;20246;-65
2022/05/06 08:39:30;;;;;;;21.60;19.50;;;;;;;;;;6145286;28;20246;-67
2022/05/06 08:42:50;;;;;;;23.80;19.23;;;;;;;;;;6145089;28;20238;-66
2022/05/06 08:53:29;;;;;;;19.47;17.63;;;;;;;;;;6155455;28;20250;-65
2022/05/06 08:56:52;;;;;;;17.73;15.10;;;;;;;;;;6151741;28;20247;-68
2022/05/06 09:00:14;;;;;;;16.67;14.73;;;;;;;;;;6148841;28;20263;-65
2022/05/06 09:03:38;;;;;;;16.70;14.47;;;;;;;;;;6154446;28;20235;-67
2022/05/06 09:07:13;;;;;;;13.83;12.10;;;;;;;;;;6160564;28;20329;-67
2022/05/06 09:10:33;;;;;;;14.57;12.80;;;;;;;;;;6155921;28;20235;-66
2022/05/06 09:13:56;;;;;;;10.53;9.43;;;;;;;;;;6160298;28;20234;-68
2022/05/06 09:17:18;;;;;;;12.73;11.23;;;;;;;;;;6155617;28;20651;-69
2022/05/06 09:20:41;;;;;;;8.87;7.13;;;;;;;;;;6155684;28;20234;-71
2022/05/06 09:24:15;;;;;;;14.47;12.50;;;;;;;;;;6149558;28;20242;-70
2022/05/06 09:27:35;;;;;;;13.53;12.17;;;;;;;;;;6148699;28;21757;-68
2022/05/06 09:31:00;;;;;;;17.37;14.07;;;;;;;;;;6153469;28;20599;-69
2022/05/06 09:34:26;;;;;;;13.00;11.63;;;;;;;;;;6155755;28;20234;-68
2022/05/06 09:37:49;;;;;;;11.40;10.15;;;;;;;;;;6155844;28;21674;-68
2022/05/06 09:41:19;;;;;;;12.95;11.63;;;;;;;;;;6156237;28;20223;-70
2022/05/06 09:44:41;;;;;;;11.88;10.68;;;;;;;;;;6151709;28;20234;-69
2022/05/06 09:48:02;;;;;;;13.57;12.27;;;;;;;;;;6156510;28;20242;-70
2022/05/06 09:51:25;;;;;;;15.90;12.00;;;;;;;;;;6161239;28;20235;-69
2022/05/06 09:54:49;;;;;;;12.50;10.55;;;;;;;;;;6158816;28;20765;-67
2022/05/06 09:58:09;;;;;;;9.80;8.73;;;;;;;;;;6146788;28;20234;-69
2022/05/06 10:01:30;;;;;;;11.85;10.65;;;;;;;;;;6150467;28;20660;-69
2022/05/06 10:04:50;;;;;;;12.55;11.27;;;;;;;;;;6147876;28;20230;-66
2022/05/06 10:08:13;;;;;;;12.20;9.68;;;;;;;;;;6152920;28;20238;-64
2022/05/06 10:11:35;;;;;;;14.48;12.15;;;;;;;;;;6151931;28;20605;-67
2022/05/06 10:14:56;;;;;;;11.88;10.25;;;;;;;;;;6144184;28;20656;-65
2022/05/06 10:18:31;;;;;;;14.77;12.05;;;;;;;;;;6150410;28;20234;-65
2022/05/06 10:21:52;;;;;;;12.15;10.90;;;;;;;;;;6138733;28;20235;-66
2022/05/06 10:25:41;;;;;;;11.68;10.55;;;;;;;;;;6146044;28;20238;-67
2022/05/06 10:32:52;;;;;;;10.82;9.82;;;;;;;;;;6153421;28;20292;-66
2022/05/06 10:36:36;;;;;;;10.82;9.70;;;;;;;;;;6154305;28;20238;-67
2022/05/06 10:39:58;;;;;;;11.98;10.88;;;;;;;;;;6153804;28;20688;-64
2022/05/06 10:43:33;;;;;;;11.40;10.27;;;;;;;;;;6162881;28;20230;-64
2022/05/06 10:46:55;;;;;;;11.18;10.00;;;;;;;;;;6152904;28;20258;-65
2022/05/06 10:50:16;;;;;;;13.65;11.55;;;;;;;;;;6149744;28;20249;-66
2022/05/06 10:53:37;;;;;;;11.63;10.43;;;;;;;;;;6153115;28;20235;-66
2022/05/06 10:57:05;;;;;;;12.52;11.38;;;;;;;;;;6154893;28;20243;-66
2022/05/06 11:00:27;;;;;;;12.07;10.88;;;;;;;;;;6150575;28;20238;-67
2022/05/06 11:03:51;;;;;;;12.77;11.43;;;;;;;;;;6136318;28;20258;-65
2022/05/06 11:07:12;;;;;;;11.85;10.65;;;;;;;;;;6143112;28;20238;-65
2022/05/06 11:10:34;;;;;;;12.27;10.65;;;;;;;;;;6140918;28;20227;-66
2022/05/06 11:14:17;;;;;;;10.45;9.45;;;;;;;;;;6140674;28;20226;-65
2022/05/06 11:17:38;;;;;;;11.68;10.60;;;;;;;;;;6144735;28;20246;-67
2022/05/06 11:21:00;;;;;;;11.32;10.25;;;;;;;;;;6134331;28;20238;-66
2022/05/06 11:24:21;;;;;;;10.18;9.27;;;;;;;;;;6140664;28;20322;-64
2022/05/06 11:27:42;;;;;;;10.43;8.27;;;;;;;;;;6150262;28;20231;-64
2022/05/06 11:31:04;;;;;;;13.25;9.82;;;;;;;;;;6146660;28;20239;-71
2022/05/06 11:34:25;;;;;;;15.10;10.85;;;;;;;;;;6142453;28;20230;-79
2022/05/06 11:37:46;;;;;;;10.38;9.35;;;;;;;;;;6130183;28;20238;-81
2022/05/06 11:41:08;;;;;;;10.95;8.38;;;;;;;;;;6127288;28;21600;-77
2022/05/06 11:47:27;;;;;;;9.57;8.32;;;;;;;;;;6123438;28;20234;-76
2022/05/06 11:48:12;;;;;;;9.55;8.55;;;;;;;;;;6128696;28;20261;-73
2022/05/06 11:51:42;;;;;;;8.70;7.53;;;;;;;;;;6241790;27;20853;-73
2022/05/06 11:55:03;;;;;;;9.00;8.10;;;;;;;;;;6249965;28;20670;-74
2022/05/06 11:58:25;;;;;;;17.98;8.75;;;;;;;;;;6249035;28;20239;-77
2022/05/06 12:01:45;;;;;;;8.23;7.30;;;;;;;;;;6262070;28;20235;-77
2022/05/06 12:05:12;;;;;;;9.02;7.53;;;;;;;;;;6270825;28;20228;-77
2022/05/06 12:08:36;;;;;;;8.35;6.85;;;;;;;;;;6284118;28;20231;-78
2022/05/06 12:12:04;;;;;;;8.95;7.65;;;;;;;;;;6278708;28;20275;-76
2022/05/06 12:15:34;;;;;;;10.68;6.88;;;;;;;;;;6275203;28;20238;-83
2022/05/06 12:18:58;;;;;;;9.60;8.63;;;;;;;;;;6277177;28;20511;-87
2022/05/06 12:22:26;;;;;;;8.80;7.90;;;;;;;;;;6276852;28;20242;-84
2022/05/06 12:25:58;;;;;;;6.90;6.22;;;;;;;;;;6291358;28;20235;-86
2022/05/06 12:29:22;;;;;;;6.35;5.75;;;;;;;;;;6284160;28;21946;-86
2022/05/06 12:32:43;;;;;;;5.63;5.10;;;;;;;;;;6267724;28;20239;-68
2022/05/06 12:36:05;;;;;;;6.10;5.28;;;;;;;;;;6272265;28;20230;-68
2022/05/06 12:39:25;;;;;;;9.45;7.35;;;;;;;;;;6271462;28;20238;-69
2022/05/06 12:43:02;;;;;;;4.85;4.45;;;;;;;;;;6291851;28;20234;-69
2022/05/06 12:46:27;;;;;;;4.20;3.80;;;;;;;;;;6301090;28;20234;-69
2022/05/06 12:49:47;;;;;;;5.60;4.55;;;;;;;;;;6300571;28;20239;-68
2022/05/06 12:53:07;;;;;;;7.47;5.15;;;;;;;;;;6303141;28;20226;-68
2022/05/06 12:56:27;;;;;;;5.95;3.90;;;;;;;;;;6297992;28;20759;-67
2022/05/06 12:59:49;;;;;;;5.18;4.25;;;;;;;;;;6303185;28;20262;-69
2022/05/06 13:03:10;;;;;;;5.97;5.35;;;;;;;;;;6281658;28;20616;-69
2022/05/06 13:06:30;;;;;;;3.72;2.83;;;;;;;;;;6280362;28;20254;-68
2022/05/06 13:09:51;;;;;;;5.97;4.13;;;;;;;;;;6280593;28;20242;-68
2022/05/06 13:13:11;;;;;;;7.35;3.85;;;;;;;;;;6280547;28;20854;-68
2022/05/06 13:16:34;;;;;;;5.55;2.70;;;;;;;;;;6275196;28;20231;-69
2022/05/06 13:19:55;;;;;;;3.92;3.53;;;;;;;;;;6280013;28;20239;-67
2022/05/06 13:23:16;;;;;;;5.28;3.40;;;;;;;;;;6279735;28;20223;-68
2022/05/06 13:26:37;;;;;;;3.92;3.40;;;;;;;;;;6274575;28;20264;-68
2022/05/06 13:29:57;;;;;;;4.93;4.45;;;;;;;;;;6291149;28;20628;-68
2022/05/06 13:33:19;;;;;;;3.85;3.55;;;;;;;;;;6287141;28;20231;-67
2022/05/06 13:36:39;;;;;;;5.05;4.15;;;;;;;;;;6277351;28;20235;-68
2022/05/06 13:39:59;;;;;;;8.27;3.78;;;;;;;;;;6281764;28;20247;-68
2022/05/06 13:43:20;;;;;;;5.32;3.67;;;;;;;;;;6272013;28;20219;-69
2022/05/06 13:46:41;;;;;;;5.57;3.83;;;;;;;;;;6280217;28;20227;-68
2022/05/06 13:50:03;;;;;;;4.40;3.63;;;;;;;;;;6282320;28;20262;-69
2022/05/06 13:53:24;;;;;;;4.25;3.63;;;;;;;;;;6286294;28;20232;-68
2022/05/06 14:00:23;;;;;;;5.82;3.47;;;;;;;;;;6282049;28;20223;-68
2022/05/06 14:03:44;;;;;;;4.45;3.78;;;;;;;;;;6286952;28;20604;-68
2022/05/06 14:07:06;;;;;;;4.70;4.20;;;;;;;;;;6282706;28;20245;-69
2022/05/06 14:10:26;;;;;;;4.60;4.00;;;;;;;;;;6287768;28;20238;-68
2022/05/06 14:13:48;;;;;;;4.20;3.80;;;;;;;;;;6281770;28;20636;-69
2022/05/06 14:17:08;;;;;;;5.43;4.75;;;;;;;;;;6285449;28;20241;-69
2022/05/06 14:20:28;;;;;;;4.13;3.72;;;;;;;;;;6286587;28;20231;-68
2022/05/06 14:23:50;;;;;;;6.95;3.75;;;;;;;;;;6297233;28;20230;-68
2022/05/06 14:27:11;;;;;;;4.18;3.88;;;;;;;;;;6275587;28;20235;-68
2022/05/06 14:30:32;;;;;;;4.22;3.83;;;;;;;;;;6282890;28;20243;-68
2022/05/06 14:33:53;;;;;;;7.90;3.95;;;;;;;;;;6282373;28;20254;-69
2022/05/06 14:37:13;;;;;;;4.18;3.88;;;;;;;;;;6276577;28;20232;-69
2022/05/06 14:40:36;;;;;;;5.55;4.03;;;;;;;;;;6274816;28;20231;-69
2022/05/06 14:43:56;;;;;;;5.40;3.40;;;;;;;;;;6275307;28;20640;-68
2022/05/06 14:47:17;;;;;;;4.97;3.55;;;;;;;;;;6280847;28;20230;-68
2022/05/06 14:50:37;;;;;;;7.78;4.65;;;;;;;;;;6282296;28;20236;-68
2022/05/06 14:53:58;;;;;;;6.55;4.47;;;;;;;;;;6293688;28;20226;-69
2022/05/06 14:57:19;;;;;;;4.03;3.72;;;;;;;;;;6280553;28;20242;-69
2022/05/06 15:00:40;;;;;;;4.43;4.03;;;;;;;;;;6281889;28;20227;-69
2022/05/06 15:04:00;;;;;;;6.40;4.53;;;;;;;;;;6276335;28;20232;-69
2022/05/06 15:07:21;;;;;;;5.97;3.92;;;;;;;;;;6283029;28;20238;-69
2022/05/06 15:10:41;;;;;;;6.18;4.10;;;;;;;;;;6277652;28;20251;-68
2022/05/06 15:14:03;;;;;;;4.90;4.35;;;;;;;;;;6277110;28;20239;-68
2022/05/06 15:17:24;;;;;;;5.13;3.65;;;;;;;;;;6284054;28;20227;-69
2022/05/06 15:20:45;;;;;;;4.32;3.58;;;;;;;;;;6285470;28;20529;-68
2022/05/06 15:24:06;;;;;;;4.72;4.40;;;;;;;;;;6273353;28;20227;-68
2022/05/06 15:27:26;;;;;;;5.85;4.00;;;;;;;;;;6265552;28;20687;-69
2022/05/06 15:30:50;;;;;;;5.78;4.03;;;;;;;;;;6274470;28;20238;-68
2022/05/06 15:34:10;;;;;;;6.35;4.22;;;;;;;;;;6279697;28;20561;-68
2022/05/06 15:37:31;;;;;;;8.25;3.60;;;;;;;;;;6276205;28;20223;-68
2022/05/06 15:40:53;;;;;;;5.85;4.43;;;;;;;;;;6282016;28;20328;-69
2022/05/06 15:44:14;;;;;;;5.10;4.03;;;;;;;;;;6280123;28;20795;-69
2022/05/06 15:47:36;;;;;;;4.38;3.97;;;;;;;;;;6275985;28;20314;-69
2022/05/06 15:50:57;;;;;;;9.75;5.50;;;;;;;;;;6282663;28;20234;-68
2022/05/06 15:54:17;;;;;;;4.10;3.70;;;;;;;;;;6283116;28;20273;-69
2022/05/06 15:57:38;;;;;;;4.75;4.18;;;;;;;;;;6282460;28;20583;-69
2022/05/06 16:00:59;;;;;;;5.97;4.25;;;;;;;;;;6272862;28;20314;-68
2022/05/06 16:04:21;;;;;;;4.38;3.88;;;;;;;;;;6278492;28;20227;-69
2022/05/06 16:07:42;;;;;;;5.07;4.30;;;;;;;;;;6275326;28;20573;-70
2022/05/06 16:11:03;;;;;;;6.30;4.57;;;;;;;;;;6282706;28;20240;-69
2022/05/06 16:17:59;;;;;;;5.20;4.70;;;;;;;;;;6277461;28;20318;-69
2022/05/06 16:21:22;;;;;;;5.70;4.68;;;;;;;;;;6274956;28;20232;-68
2022/05/06 16:24:43;;;;;;;5.03;4.15;;;;;;;;;;6281883;28;20230;-68
2022/05/06 16:28:03;;;;;;;5.93;4.78;;;;;;;;;;6274852;28;20235;-68
2022/05/06 16:31:24;;;;;;;7.43;5.10;;;;;;;;;;6278906;28;20231;-70
2022/05/06 16:38:24;;;;;;;8.32;7.63;;;;;;;;;;6271879;28;20987;-69
2022/05/06 16:41:45;;;;;;;5.32;4.82;;;;;;;;;;6280348;28;20231;-69
2022/05/06 16:45:06;;;;;;;7.88;5.53;;;;;;;;;;6283007;28;20252;-68
2022/05/06 16:48:27;;;;;;;6.68;5.15;;;;;;;;;;6282691;28;20231;-68
2022/05/06 16:51:47;;;;;;;6.00;5.38;;;;;;;;;;6285598;28;20804;-69
2022/05/06 16:55:10;;;;;;;9.43;6.85;;;;;;;;;;6280852;28;20231;-68
2022/05/06 16:58:30;;;;;;;7.68;6.25;;;;;;;;;;6280530;28;20223;-70
2022/05/06 17:01:51;;;;;;;7.13;6.00;;;;;;;;;;6277042;28;20236;-69
2022/05/06 17:05:12;;;;;;;7.78;6.72;;;;;;;;;;6277228;28;20605;-70
2022/05/06 17:08:33;;;;;;;6.65;5.93;;;;;;;;;;6282899;28;20596;-69
2022/05/06 17:11:55;;;;;;;6.78;6.15;;;;;;;;;;6285164;28;20247;-69
2022/05/06 17:15:18;;;;;;;10.43;7.20;;;;;;;;;;6283148;28;20231;-69
2022/05/06 17:18:40;;;;;;;8.23;6.90;;;;;;;;;;6292080;28;20235;-68
2022/05/06 17:22:00;;;;;;;6.43;5.82;;;;;;;;;;6281298;28;20244;-69
2022/05/06 17:25:21;;;;;;;7.68;6.78;;;;;;;;;;6280177;28;20239;-69
2022/05/06 17:28:43;;;;;;;7.40;6.80;;;;;;;;;;6280521;28;20231;-69
2022/05/06 17:32:04;;;;;;;8.43;7.18;;;;;;;;;;6281192;28;20247;-69
2022/05/06 17:35:25;;;;;;;8.00;7.30;;;;;;;;;;6292269;28;20235;-69
2022/05/06 17:38:45;;;;;;;8.10;6.88;;;;;;;;;;6281945;28;20625;-69
2022/05/06 17:42:09;;;;;;;7.95;7.15;;;;;;;;;;6275942;28;20228;-69
2022/05/06 17:45:31;;;;;;;11.63;9.60;;;;;;;;;;6276615;28;20227;-69
2022/05/06 17:48:52;;;;;;;12.40;10.18;;;;;;;;;;6286188;28;20652;-69
2022/05/06 17:52:12;;;;;;;10.98;9.23;;;;;;;;;;6291659;28;20239;-70
2022/05/06 17:55:33;;;;;;;11.48;9.20;;;;;;;;;;6281901;28;20275;-69
2022/05/06 17:58:53;;;;;;;9.50;8.60;;;;;;;;;;6286514;28;20235;-68
2022/05/06 18:02:15;;;;;;;9.75;8.70;;;;;;;;;;6286380;28;20239;-70
2022/05/06 18:05:37;;;;;;;10.48;9.52;;;;;;;;;;6280343;28;20258;-70
2022/05/06 18:08:57;;;;;;;9.75;8.88;;;;;;;;;;6290682;28;20231;-69
2022/05/06 18:12:20;;;;;;;9.50;8.60;;;;;;;;;;6291120;28;20691;-69
2022/05/06 18:15:40;;;;;;;9.15;8.30;;;;;;;;;;6286560;28;20558;-69
2022/05/06 18:19:02;;;;;;;9.38;8.43;;;;;;;;;;6290204;28;20639;-69
2022/05/06 18:22:22;;;;;;;9.15;8.05;;;;;;;;;;6279620;28;20627;-68
2022/05/06 18:25:43;;;;;;;9.52;7.95;;;;;;;;;;6284677;28;20228;-69
2022/05/06 18:29:04;;;;;;;9.30;8.35;;;;;;;;;;6281849;28;20231;-69
2022/05/06 18:36:04;;;;;;;7.00;6.30;;;;;;;;;;6285765;28;20687;-70
2022/05/06 18:39:25;;;;;;;6.75;6.18;;;;;;;;;;6284516;28;20226;-69
2022/05/06 18:42:46;;;;;;;7.80;5.07;;;;;;;;;;6278506;28;20227;-69
2022/05/06 18:46:06;;;;;;;8.48;5.75;;;;;;;;;;6282482;28;20227;-69
2022/05/06 18:49:27;;;;;;;5.55;5.00;;;;;;;;;;6296604;28;20223;-69
2022/05/06 18:52:49;;;;;;;4.47;4.05;;;;;;;;;;6284468;28;20253;-68
2022/05/06 18:56:10;;;;;;;5.00;3.65;;;;;;;;;;6279391;28;20307;-68
2022/05/06 18:59:31;;;;;;;2.92;2.72;;;;;;;;;;6274741;28;20596;-69
2022/05/06 19:02:52;;;;;;;3.53;3.25;;;;;;;;;;6278387;28;20235;-69
2022/05/06 19:06:13;;;;;;;3.78;3.38;;;;;;;;;;6277772;28;20255;-70
2022/05/06 19:09:35;;;;;;;2.60;2.40;;;;;;;;;;6262045;28;20219;-72
2022/05/06 19:12:56;;;;;;;3.33;2.15;;;;;;;;;;6279993;28;20235;-70
2022/05/06 19:16:16;;;;;;;2.75;2.47;;;;;;;;;;6280161;28;20239;-69
2022/05/06 19:19:37;;;;;;;3.30;2.85;;;;;;;;;;6271951;28;20231;-70
2022/05/06 19:26:37;;;;;;;2.92;2.67;;;;;;;;;;6279493;28;20609;-69
2022/05/06 19:29:58;;;;;;;3.28;1.50;;;;;;;;;;6284581;28;20243;-68
2022/05/06 19:33:20;;;;;;;2.17;1.98;;;;;;;;;;6278135;28;20227;-70
2022/05/06 19:36:40;;;;;;;2.22;1.95;;;;;;;;;;6281418;28;20255;-69
2022/05/06 19:40:01;;;;;;;1.48;1.38;;;;;;;;;;6280348;28;20235;-69
2022/05/06 19:43:23;;;;;;;6.05;2.67;;;;;;;;;;6280570;28;20231;-71
2022/05/06 19:46:46;;;;;;;2.50;2.30;;;;;;;;;;6285035;28;20588;-69
2022/05/06 19:50:07;;;;;;;3.03;1.90;;;;;;;;;;6273292;28;20227;-68
2022/05/06 19:53:27;;;;;;;4.18;1.98;;;;;;;;;;6294502;28;20389;-70
2022/05/06 19:56:48;;;;;;;2.67;1.92;;;;;;;;;;6278158;28;20324;-69
2022/05/06 20:00:11;;;;;;;2.05;1.95;;;;;;;;;;6271611;28;20231;-69
2022/05/06 20:03:35;;;;;;;2.47;2.28;;;;;;;;;;6276013;28;20223;-70
2022/05/06 20:06:56;;;;;;;5.63;3.80;;;;;;;;;;6272831;28;20493;-69
2022/05/06 20:10:17;;;;;;;2.47;1.98;;;;;;;;;;6280225;28;20223;-69
2022/05/06 20:13:37;;;;;;;4.95;2.63;;;;;;;;;;6267581;28;20227;-69
2022/05/06 20:16:59;;;;;;;3.85;2.58;;;;;;;;;;6289326;28;20235;-69
2022/05/06 20:20:19;;;;;;;3.28;2.35;;;;;;;;;;6286244;28;20224;-69
2022/05/06 20:23:40;;;;;;;2.38;2.17;;;;;;;;;;6277721;28;20240;-69
2022/05/06 20:27:00;;;;;;;3.85;2.10;;;;;;;;;;6290824;28;20251;-70
2022/05/06 20:30:21;;;;;;;2.38;2.08;;;;;;;;;;6274012;28;20235;-69
2022/05/06 20:33:43;;;;;;;2.42;2.22;;;;;;;;;;6279298;28;20542;-70
2022/05/06 20:37:03;;;;;;;2.20;1.85;;;;;;;;;;6287245;28;20502;-69
2022/05/06 20:40:24;;;;;;;1.90;1.80;;;;;;;;;;6287655;28;20250;-71
2022/05/06 20:43:44;;;;;;;2.53;2.22;;;;;;;;;;6282008;28;20460;-70
2022/05/06 20:47:05;;;;;;;1.80;1.70;;;;;;;;;;6291615;28;20305;-70
2022/05/06 20:50:27;;;;;;;3.33;2.30;;;;;;;;;;6282954;28;20230;-69
2022/05/06 20:53:48;;;;;;;2.75;2.55;;;;;;;;;;6293075;28;20227;-68